Home   Weather   USA   Naples   Past weeks
Flag for USA

Past Weather in Naples, Florida, USA — January 2021

Currently: 75 °F. Light rain. Passing clouds. (Weather station: Naples Municipal, USA). See more current weather

January 2021 Weather in Naples — Graph

°F

High & Low Weather Summary for January 2021

 TemperatureHumidityPressure
High82 °F (Jan 1, 12:53 pm)100% (Jan 2, 3:53 am)30.33 "Hg (Jan 2, 3:53 am)
Low43 °F (Jan 10, 6:53 am)14% (Jan 30, 1:53 pm)29.84 "Hg (Jan 15, 3:53 pm)
Average65 °F77%30.09 "Hg
* Reported Jan 1 12:53 am — Jan 31 11:53 pm, Naples. Weather by CustomWeather, © 2021

Note: Actual official high and low records may vary slightly from our data, if they occured in-between our weather recording intervals... More about our weather records

Naples Weather History for January 1, 2021

Scroll right to see more
 ConditionsComfort  
Time TempWeatherWind HumidityBarometerVisibility
12:53 am
Fri, Jan 1
72 °FClear.13 mph87%30.07 "Hg8 mi
1:53 am71 °FClear.10 mph90%30.09 "Hg8 mi
2:53 am71 °FClear.7 mph90%30.09 "Hg8 mi
3:53 am70 °FPassing clouds.9 mph93%30.09 "Hg8 mi
4:34 am70 °FPassing clouds.6 mph93%30.11 "Hg8 mi
4:53 am70 °FOvercast.7 mph93%30.11 "Hg8 mi
5:25 am70 °FPassing clouds.7 mph97%30.11 "Hg8 mi
5:53 am70 °FClear.6 mph97%30.11 "Hg8 mi
6:53 am70 °FClear.6 mph97%30.12 "Hg8 mi
7:53 am70 °FSunny.5 mph97%30.14 "Hg8 mi
8:53 am74 °FSunny.14 mph88%30.16 "Hg9 mi
9:53 am77 °FScattered clouds.16 mph79%30.17 "Hg10 mi
10:36 am79 °FPartly sunny.15 mph74%30.17 "Hg10 mi
11:02 am81 °FScattered clouds.22 mph67%30.16 "Hg10 mi
11:21 am80 °FPartly sunny.20 mph69%30.15 "Hg10 mi
11:29 am80 °FBroken clouds.20 mph69%30.15 "Hg10 mi
11:53 am81 °FScattered clouds.21 mph65%30.14 "Hg10 mi
12:53 pm82 °FScattered clouds.16 mph63%30.11 "Hg10 mi
1:53 pm82 °FScattered clouds.16 mph63%30.09 "Hg10 mi
2:53 pm82 °FPassing clouds.21 mph63%30.09 "Hg10 mi
3:53 pm81 °FPassing clouds.12 mph67%30.10 "Hg10 mi
4:53 pm79 °FSunny.15 mph72%30.11 "Hg10 mi
5:53 pm76 °FClear.8 mph80%30.11 "Hg9 mi
6:53 pm74 °FClear.9 mph85%30.12 "Hg9 mi
7:53 pm73 °FClear.7 mph88%30.13 "Hg9 mi
8:53 pm72 °FClear.6 mph91%30.14 "Hg8 mi
9:18 pm72 °FPassing clouds.5 mph91%30.16 "Hg8 mi
9:53 pm72 °FPassing clouds.6 mph91%30.15 "Hg7 mi
10:53 pm71 °FOvercast.5 mph93%30.14 "Hg8 mi
11:32 pm71 °FPassing clouds.6 mph93%30.14 "Hg8 mi
11:53 pm71 °FPassing clouds.7 mph93%30.13 "Hg8 mi
Weather by CustomWeather, © 2021

See weather overview